Aérodrome :
LOGIN :

S'inscrire | Disclaimer

   EN    FR    IT 

 










Légende :    VFR   VFR Marginal   IFR   IFR Intensif   IFR Très Intensif
Visi : 
Plafond : 
>= 8 km
>= 3000ft
5 à 8 km
1000 à 3000 ft
1500m à 5 km
500 à 1000 ft
800 à 1500m
200 à 500 ft
< 800m
< 200 ft
Symboles :   Orages  Brouillard  Fortes neiges  Fortes précipitations  Vent > 20 kt
SIGMETs :   Divers  Orages  Givrage  Turbulence  Onde Orograph.  Cendres Volcan.







- Altitude de l'aérodrome : 299 ft
- Code IATA : EDM
- Voir les cartes d'approche


LFRI - La Roche Sur Yon - Les Ajoncs

DERNIER METAR :
  • 280800Z AUTO 29004KT 240V320 CAVOK 09/05 Q1020 NOSIG

METARs EXPIRÉS :
  • 280730Z AUTO 29003KT CAVOK 06/05 Q1020 NOSIG
  • 280700Z AUTO VRB02KT CAVOK 04/04 Q1020 NOSIG
  • 280630Z AUTO 27003KT CAVOK 02/02 Q1020 NOSIG
  • 280600Z AUTO 30002KT CAVOK 01/01 Q1020 TEMPO 1200 BR
  • 280530Z AUTO 31002KT 1700 BR NSC 01/01 Q1020 BECMG 9999 NSW

TAF TAF LFRI
Valide du 28 à 06h jusqu'au 29 à 06h UTC


280500Z 2806/2906 VRB03KT CAVOK
PROB30
TEMPO 2806/2807 1200 BR
BECMG 2807/2810 BKN030
BECMG 2812/2815 27010KT
PROB30
TEMPO 2812/2815 -SHRA BKN030TCU
BECMG 2818/2821 VRB03KT
BECMG 2903/2906 10010KT
Pas de NOTAMs connus pour ce terrain.



MET'MAP, la Météo Aéronautique d'un coup d'oeil ! - Copyright ORBIFLY Décembre 2007 - Disclaimer

ORBIFLY MET'MAP TEAM :

Programmation & Développement : Alexandra Zaïnal
Conception & Développement : Baudouin d'Aumeries
Co-Programmation & Développement : Marc-Olivier Méhu
Soutien technique & logistique : Manuel Goepfert

Contact : metmap@orbifly.com




SOURCES & CREDITS :

   NOAA